sensor_id;sensor_type;location;lat;lon;timestamp;temperature;humidity
68189;DHT22;66299;47.514;19.218;2023-03-03T00:01:48;-0.01;96.82
68189;DHT22;66299;47.514;19.218;2023-03-03T00:04:17;-0.05;96.67
68189;DHT22;66299;47.514;19.218;2023-03-03T00:06:47;-0.01;97.09
68189;DHT22;66299;47.514;19.218;2023-03-03T00:09:18;0.00;97.03
68189;DHT22;66299;47.514;19.218;2023-03-03T00:11:53;-0.08;96.75
68189;DHT22;66299;47.514;19.218;2023-03-03T00:14:26;-0.14;96.91
68189;DHT22;66299;47.514;19.218;2023-03-03T00:17:00;-0.29;96.31
68189;DHT22;66299;47.514;19.218;2023-03-03T00:19:40;-0.36;96.42
68189;DHT22;66299;47.514;19.218;2023-03-03T00:22:25;-0.44;95.94
68189;DHT22;66299;47.514;19.218;2023-03-03T00:25:23;-0.48;96.05
68189;DHT22;66299;47.514;19.218;2023-03-03T00:27:54;-0.58;96.00
68189;DHT22;66299;47.514;19.218;2023-03-03T00:30:27;-0.63;96.63
68189;DHT22;66299;47.514;19.218;2023-03-03T00:32:56;-0.66;96.73
68189;DHT22;66299;47.514;19.218;2023-03-03T00:35:29;-0.61;97.03
68189;DHT22;66299;47.514;19.218;2023-03-03T00:38:11;-0.63;96.64
68189;DHT22;66299;47.514;19.218;2023-03-03T00:40:44;-0.70;96.68
68189;DHT22;66299;47.514;19.218;2023-03-03T00:43:17;-0.73;97.20
68189;DHT22;66299;47.514;19.218;2023-03-03T00:45:49;-0.79;97.47
68189;DHT22;66299;47.514;19.218;2023-03-03T00:48:27;-0.79;97.45
68189;DHT22;66299;47.514;19.218;2023-03-03T00:50:58;-0.79;97.58
68189;DHT22;66299;47.514;19.218;2023-03-03T00:53:30;-0.69;97.43
68189;DHT22;66299;47.514;19.218;2023-03-03T00:56:01;-0.59;97.33
68189;DHT22;66299;47.514;19.218;2023-03-03T00:58:32;-0.77;97.21
68189;DHT22;66299;47.514;19.218;2023-03-03T01:01:06;-0.83;97.48
68189;DHT22;66299;47.514;19.218;2023-03-03T01:03:37;-0.84;97.64
68189;DHT22;66299;47.514;19.218;2023-03-03T01:06:09;-0.87;97.47
68189;DHT22;66299;47.514;19.218;2023-03-03T01:08:40;-0.77;97.96
68189;DHT22;66299;47.514;19.218;2023-03-03T01:11:13;-0.86;97.49
68189;DHT22;66299;47.514;19.218;2023-03-03T01:13:45;-0.90;97.54
68189;DHT22;66299;47.514;19.218;2023-03-03T01:16:16;-0.94;97.56
68189;DHT22;66299;47.514;19.218;2023-03-03T01:18:49;-0.97;97.57
68189;DHT22;66299;47.514;19.218;2023-03-03T01:21:20;-0.97;97.71
68189;DHT22;66299;47.514;19.218;2023-03-03T01:23:58;-0.92;97.77
68189;DHT22;66299;47.514;19.218;2023-03-03T01:26:31;-0.80;98.16
68189;DHT22;66299;47.514;19.218;2023-03-03T01:29:03;-0.73;98.26
68189;DHT22;66299;47.514;19.218;2023-03-03T01:31:33;-0.58;98.10
68189;DHT22;66299;47.514;19.218;2023-03-03T01:34:03;-0.72;97.92
68189;DHT22;66299;47.514;19.218;2023-03-03T01:36:34;-0.80;97.85
68189;DHT22;66299;47.514;19.218;2023-03-03T01:39:10;-0.84;97.78
68189;DHT22;66299;47.514;19.218;2023-03-03T01:41:39;-0.89;98.13
68189;DHT22;66299;47.514;19.218;2023-03-03T01:44:11;-0.84;98.24
68189;DHT22;66299;47.514;19.218;2023-03-03T01:46:50;-0.83;98.29
68189;DHT22;66299;47.514;19.218;2023-03-03T01:49:22;-0.79;98.48
68189;DHT22;66299;47.514;19.218;2023-03-03T01:51:55;-0.79;98.62
68189;DHT22;66299;47.514;19.218;2023-03-03T01:54:30;-0.84;98.35
68189;DHT22;66299;47.514;19.218;2023-03-03T01:57:04;-0.86;98.30
68189;DHT22;66299;47.514;19.218;2023-03-03T01:59:37;-0.82;98.56
68189;DHT22;66299;47.514;19.218;2023-03-03T02:02:09;-0.94;98.32
68189;DHT22;66299;47.514;19.218;2023-03-03T02:04:43;-0.90;98.42
68189;DHT22;66299;47.514;19.218;2023-03-03T02:07:15;-1.00;98.25
68189;DHT22;66299;47.514;19.218;2023-03-03T02:09:52;-0.97;98.27
68189;DHT22;66299;47.514;19.218;2023-03-03T02:12:27;-1.03;98.13
68189;DHT22;66299;47.514;19.218;2023-03-03T02:14:59;-1.07;97.92
68189;DHT22;66299;47.514;19.218;2023-03-03T02:17:29;-1.07;97.98
68189;DHT22;66299;47.514;19.218;2023-03-03T02:20:02;-1.07;98.26
68189;DHT22;66299;47.514;19.218;2023-03-03T02:22:38;-1.01;97.93
68189;DHT22;66299;47.514;19.218;2023-03-03T02:25:15;-1.05;98.02
68189;DHT22;66299;47.514;19.218;2023-03-03T02:27:50;-1.10;97.68
68189;DHT22;66299;47.514;19.218;2023-03-03T02:30:21;-1.10;97.40
68189;DHT22;66299;47.514;19.218;2023-03-03T02:32:52;-1.17;98.04
68189;DHT22;66299;47.514;19.218;2023-03-03T02:35:34;-1.14;98.21
68189;DHT22;66299;47.514;19.218;2023-03-03T02:38:16;-1.08;98.54
68189;DHT22;66299;47.514;19.218;2023-03-03T02:40:54;-1.01;98.99
68189;DHT22;66299;47.514;19.218;2023-03-03T02:43:33;-1.03;98.75
68189;DHT22;66299;47.514;19.218;2023-03-03T02:46:06;-1.05;98.29
68189;DHT22;66299;47.514;19.218;2023-03-03T02:48:36;-1.05;98.75
68189;DHT22;66299;47.514;19.218;2023-03-03T02:51:05;-1.11;98.28
68189;DHT22;66299;47.514;19.218;2023-03-03T02:53:36;-1.11;98.38
68189;DHT22;66299;47.514;19.218;2023-03-03T02:56:07;-1.17;97.65
68189;DHT22;66299;47.514;19.218;2023-03-03T02:58:39;-1.08;98.08
68189;DHT22;66299;47.514;19.218;2023-03-03T03:01:10;-1.25;97.95
68189;DHT22;66299;47.514;19.218;2023-03-03T03:03:43;-1.28;98.23
68189;DHT22;66299;47.514;19.218;2023-03-03T03:06:14;-1.30;98.32
68189;DHT22;66299;47.514;19.218;2023-03-03T03:08:48;-1.30;98.36
68189;DHT22;66299;47.514;19.218;2023-03-03T03:11:19;-1.32;98.56
68189;DHT22;66299;47.514;19.218;2023-03-03T03:13:50;-1.34;98.71
68189;DHT22;66299;47.514;19.218;2023-03-03T03:16:22;-1.32;98.80
68189;DHT22;66299;47.514;19.218;2023-03-03T03:18:56;-1.27;98.73
68189;DHT22;66299;47.514;19.218;2023-03-03T03:21:29;-1.25;98.69
68189;DHT22;66299;47.514;19.218;2023-03-03T03:24:00;-1.25;98.68
68189;DHT22;66299;47.514;19.218;2023-03-03T03:26:31;-1.20;98.86
68189;DHT22;66299;47.514;19.218;2023-03-03T03:29:01;-1.11;98.83
68189;DHT22;66299;47.514;19.218;2023-03-03T03:31:33;-1.14;98.50
68189;DHT22;66299;47.514;19.218;2023-03-03T03:34:01;-1.10;98.58
68189;DHT22;66299;47.514;19.218;2023-03-03T03:36:30;-1.03;98.87
68189;DHT22;66299;47.514;19.218;2023-03-03T03:39:01;-0.89;98.89
68189;DHT22;66299;47.514;19.218;2023-03-03T03:41:35;-0.83;98.63
68189;DHT22;66299;47.514;19.218;2023-03-03T03:44:06;-0.76;98.80
68189;DHT22;66299;47.514;19.218;2023-03-03T03:46:36;-0.72;98.61
68189;DHT22;66299;47.514;19.218;2023-03-03T03:49:04;-0.56;98.66
68189;DHT22;66299;47.514;19.218;2023-03-03T03:51:33;-0.58;98.27
68189;DHT22;66299;47.514;19.218;2023-03-03T03:54:10;-0.59;98.35
68189;DHT22;66299;47.514;19.218;2023-03-03T03:56:41;-0.46;98.18
68189;DHT22;66299;47.514;19.218;2023-03-03T03:59:12;-0.51;97.92
68189;DHT22;66299;47.514;19.218;2023-03-03T04:01:40;-0.52;97.87
68189;DHT22;66299;47.514;19.218;2023-03-03T04:04:10;-0.51;97.95
68189;DHT22;66299;47.514;19.218;2023-03-03T04:06:44;-0.55;97.90
68189;DHT22;66299;47.514;19.218;2023-03-03T04:09:15;-0.59;97.79
68189;DHT22;66299;47.514;19.218;2023-03-03T04:11:47;-0.61;97.86
68189;DHT22;66299;47.514;19.218;2023-03-03T04:14:19;-0.63;98.12
68189;DHT22;66299;47.514;19.218;2023-03-03T04:16:51;-0.58;98.08
68189;DHT22;66299;47.514;19.218;2023-03-03T04:19:22;-0.62;98.07
68189;DHT22;66299;47.514;19.218;2023-03-03T04:21:56;-0.69;97.97
68189;DHT22;66299;47.514;19.218;2023-03-03T04:24:27;-0.72;98.11
68189;DHT22;66299;47.514;19.218;2023-03-03T04:26:59;-0.87;97.97
68189;DHT22;66299;47.514;19.218;2023-03-03T04:29:30;-0.99;98.14
68189;DHT22;66299;47.514;19.218;2023-03-03T04:31:58;-0.97;98.69
68189;DHT22;66299;47.514;19.218;2023-03-03T04:34:31;-0.93;98.42
68189;DHT22;66299;47.514;19.218;2023-03-03T04:37:03;-0.76;98.58
68189;DHT22;66299;47.514;19.218;2023-03-03T04:39:35;-0.90;97.94
68189;DHT22;66299;47.514;19.218;2023-03-03T04:42:04;-0.89;98.00
68189;DHT22;66299;47.514;19.218;2023-03-03T04:44:43;-1.01;97.86
68189;DHT22;66299;47.514;19.218;2023-03-03T04:47:13;-1.15;98.20
68189;DHT22;66299;47.514;19.218;2023-03-03T04:49:41;-1.25;97.55
68189;DHT22;66299;47.514;19.218;2023-03-03T04:52:11;-1.24;97.91
68189;DHT22;66299;47.514;19.218;2023-03-03T04:54:40;-1.25;98.03
68189;DHT22;66299;47.514;19.218;2023-03-03T04:57:13;-1.25;98.44
68189;DHT22;66299;47.514;19.218;2023-03-03T04:59:44;-1.15;98.88
68189;DHT22;66299;47.514;19.218;2023-03-03T05:02:13;-1.13;98.65
68189;DHT22;66299;47.514;19.218;2023-03-03T05:04:50;-1.00;98.73
68189;DHT22;66299;47.514;19.218;2023-03-03T05:07:20;-1.08;98.39
68189;DHT22;66299;47.514;19.218;2023-03-03T05:09:51;-1.04;98.03
68189;DHT22;66299;47.514;19.218;2023-03-03T05:12:20;-1.00;98.12
68189;DHT22;66299;47.514;19.218;2023-03-03T05:15:01;-0.93;98.00
68189;DHT22;66299;47.514;19.218;2023-03-03T05:17:32;-0.94;97.60
68189;DHT22;66299;47.514;19.218;2023-03-03T05:20:02;-1.00;97.93
68189;DHT22;66299;47.514;19.218;2023-03-03T05:22:34;-0.99;97.84
68189;DHT22;66299;47.514;19.218;2023-03-03T05:25:06;-0.96;98.00
68189;DHT22;66299;47.514;19.218;2023-03-03T05:27:40;-0.96;98.35
68189;DHT22;66299;47.514;19.218;2023-03-03T05:33:01;-0.92;97.77
68189;DHT22;66299;47.514;19.218;2023-03-03T05:35:32;-0.89;98.05
68189;DHT22;66299;47.514;19.218;2023-03-03T05:38:02;-0.96;97.93
68189;DHT22;66299;47.514;19.218;2023-03-03T05:40:31;-1.01;97.49
68189;DHT22;66299;47.514;19.218;2023-03-03T05:43:02;-0.94;97.77
68189;DHT22;66299;47.514;19.218;2023-03-03T05:45:33;-0.96;97.38
68189;DHT22;66299;47.514;19.218;2023-03-03T05:48:07;-0.96;97.47
68189;DHT22;66299;47.514;19.218;2023-03-03T05:50:41;-0.97;97.12
68189;DHT22;66299;47.514;19.218;2023-03-03T05:53:14;-0.94;97.68
68189;DHT22;66299;47.514;19.218;2023-03-03T05:55:44;-0.90;97.98
68189;DHT22;66299;47.514;19.218;2023-03-03T05:58:16;-0.84;97.78
68189;DHT22;66299;47.514;19.218;2023-03-03T06:00:47;-0.83;97.70
68189;DHT22;66299;47.514;19.218;2023-03-03T06:03:18;-0.87;97.42
68189;DHT22;66299;47.514;19.218;2023-03-03T06:05:47;-0.82;96.97
68189;DHT22;66299;47.514;19.218;2023-03-03T06:08:20;-0.93;96.86
68189;DHT22;66299;47.514;19.218;2023-03-03T06:10:53;-0.86;97.03
68189;DHT22;66299;47.514;19.218;2023-03-03T06:13:23;-0.79;96.90
68189;DHT22;66299;47.514;19.218;2023-03-03T06:15:54;-0.76;97.23
68189;DHT22;66299;47.514;19.218;2023-03-03T06:18:24;-0.66;97.08
68189;DHT22;66299;47.514;19.218;2023-03-03T06:20:53;-0.65;97.13
68189;DHT22;66299;47.514;19.218;2023-03-03T06:23:24;-0.65;96.67
68189;DHT22;66299;47.514;19.218;2023-03-03T06:25:56;-0.61;96.74
68189;DHT22;66299;47.514;19.218;2023-03-03T06:28:24;-0.49;96.74
68189;DHT22;66299;47.514;19.218;2023-03-03T06:30:57;-0.41;96.61
68189;DHT22;66299;47.514;19.218;2023-03-03T06:33:30;-0.35;96.84
68189;DHT22;66299;47.514;19.218;2023-03-03T06:35:58;-0.28;97.29
68189;DHT22;66299;47.514;19.218;2023-03-03T06:38:26;-0.24;96.79
68189;DHT22;66299;47.514;19.218;2023-03-03T06:40:55;-0.11;96.87
68189;DHT22;66299;47.514;19.218;2023-03-03T06:43:26;0.00;96.45
68189;DHT22;66299;47.514;19.218;2023-03-03T06:45:57;0.09;96.60
68189;DHT22;66299;47.514;19.218;2023-03-03T06:48:29;0.11;96.27
68189;DHT22;66299;47.514;19.218;2023-03-03T06:51:01;0.13;96.00
68189;DHT22;66299;47.514;19.218;2023-03-03T06:53:38;0.23;95.73
68189;DHT22;66299;47.514;19.218;2023-03-03T06:56:09;0.21;95.51
68189;DHT22;66299;47.514;19.218;2023-03-03T06:58:39;0.40;95.47
68189;DHT22;66299;47.514;19.218;2023-03-03T07:01:14;0.40;95.21
68189;DHT22;66299;47.514;19.218;2023-03-03T07:03:44;0.51;95.24
68189;DHT22;66299;47.514;19.218;2023-03-03T07:06:20;0.62;94.99
68189;DHT22;66299;47.514;19.218;2023-03-03T07:08:52;0.81;94.80
68189;DHT22;66299;47.514;19.218;2023-03-03T07:11:22;0.97;95.11
68189;DHT22;66299;47.514;19.218;2023-03-03T07:13:57;1.22;95.04
68189;DHT22;66299;47.514;19.218;2023-03-03T07:16:28;1.36;94.38
68189;DHT22;66299;47.514;19.218;2023-03-03T07:19:01;1.40;94.41
68189;DHT22;66299;47.514;19.218;2023-03-03T07:21:33;1.52;93.62
68189;DHT22;66299;47.514;19.218;2023-03-03T07:24:17;1.61;93.33
68189;DHT22;66299;47.514;19.218;2023-03-03T07:26:49;1.78;93.18
68189;DHT22;66299;47.514;19.218;2023-03-03T07:29:21;1.95;92.56
68189;DHT22;66299;47.514;19.218;2023-03-03T07:31:54;2.16;92.51
68189;DHT22;66299;47.514;19.218;2023-03-03T07:34:35;2.32;92.47
68189;DHT22;66299;47.514;19.218;2023-03-03T07:37:13;2.34;92.26
68189;DHT22;66299;47.514;19.218;2023-03-03T07:39:44;2.47;92.61
68189;DHT22;66299;47.514;19.218;2023-03-03T07:42:20;2.50;91.83
68189;DHT22;66299;47.514;19.218;2023-03-03T07:44:50;2.58;91.62
68189;DHT22;66299;47.514;19.218;2023-03-03T07:47:24;2.73;92.60
68189;DHT22;66299;47.514;19.218;2023-03-03T07:49:56;2.83;92.15
68189;DHT22;66299;47.514;19.218;2023-03-03T07:52:28;2.80;92.52
68189;DHT22;66299;47.514;19.218;2023-03-03T07:54:58;2.87;92.62
68189;DHT22;66299;47.514;19.218;2023-03-03T07:57:35;3.02;92.14
68189;DHT22;66299;47.514;19.218;2023-03-03T08:03:27;3.39;91.41
68189;DHT22;66299;47.514;19.218;2023-03-03T08:06:01;3.64;90.97
68189;DHT22;66299;47.514;19.218;2023-03-03T08:08:37;3.69;90.67
68189;DHT22;66299;47.514;19.218;2023-03-03T08:11:09;3.97;90.53
68189;DHT22;66299;47.514;19.218;2023-03-03T08:13:38;4.26;90.03
68189;DHT22;66299;47.514;19.218;2023-03-03T08:16:24;4.43;89.68
68189;DHT22;66299;47.514;19.218;2023-03-03T08:18:56;4.64;89.88
68189;DHT22;66299;47.514;19.218;2023-03-03T08:21:27;4.80;89.62
68189;DHT22;66299;47.514;19.218;2023-03-03T08:23:57;5.07;88.22
68189;DHT22;66299;47.514;19.218;2023-03-03T08:26:26;5.17;87.57
68189;DHT22;66299;47.514;19.218;2023-03-03T08:28:54;5.21;88.70
68189;DHT22;66299;47.514;19.218;2023-03-03T08:31:28;5.27;88.13
68189;DHT22;66299;47.514;19.218;2023-03-03T08:34:11;5.45;88.34
68189;DHT22;66299;47.514;19.218;2023-03-03T08:40:44;5.81;86.95
68189;DHT22;66299;47.514;19.218;2023-03-03T08:43:50;6.31;85.09
68189;DHT22;66299;47.514;19.218;2023-03-03T08:46:18;6.27;85.16
68189;DHT22;66299;47.514;19.218;2023-03-03T08:49:18;6.56;84.33
68189;DHT22;66299;47.514;19.218;2023-03-03T08:52:02;6.45;84.26
68189;DHT22;66299;47.514;19.218;2023-03-03T08:55:00;6.66;83.85
68189;DHT22;66299;47.514;19.218;2023-03-03T08:57:29;6.64;83.31
68189;DHT22;66299;47.514;19.218;2023-03-03T08:59:58;6.82;83.34
68189;DHT22;66299;47.514;19.218;2023-03-03T09:02:27;7.24;82.24
68189;DHT22;66299;47.514;19.218;2023-03-03T09:04:58;7.32;82.08
68189;DHT22;66299;47.514;19.218;2023-03-03T09:07:30;7.32;82.07
68189;DHT22;66299;47.514;19.218;2023-03-03T09:09:58;7.62;80.68
68189;DHT22;66299;47.514;19.218;2023-03-03T09:12:31;7.52;81.30
68189;DHT22;66299;47.514;19.218;2023-03-03T09:15:13;7.51;81.42
68189;DHT22;66299;47.514;19.218;2023-03-03T09:17:43;7.50;81.68
68189;DHT22;66299;47.514;19.218;2023-03-03T09:20:28;7.66;81.04
68189;DHT22;66299;47.514;19.218;2023-03-03T09:22:59;7.45;81.14
68189;DHT22;66299;47.514;19.218;2023-03-03T09:25:36;7.51;81.29
68189;DHT22;66299;47.514;19.218;2023-03-03T09:28:18;7.76;81.35
68189;DHT22;66299;47.514;19.218;2023-03-03T09:30:54;7.92;80.51
68189;DHT22;66299;47.514;19.218;2023-03-03T09:33:26;7.97;80.29
68189;DHT22;66299;47.514;19.218;2023-03-03T09:36:03;8.09;79.87
68189;DHT22;66299;47.514;19.218;2023-03-03T09:38:41;8.45;79.03
68189;DHT22;66299;47.514;19.218;2023-03-03T09:44:54;8.67;76.60
68189;DHT22;66299;47.514;19.218;2023-03-03T09:47:38;8.55;77.32
68189;DHT22;66299;47.514;19.218;2023-03-03T09:50:15;8.82;76.62
68189;DHT22;66299;47.514;19.218;2023-03-03T09:52:55;8.92;76.60
68189;DHT22;66299;47.514;19.218;2023-03-03T09:55:38;8.92;76.32
68189;DHT22;66299;47.514;19.218;2023-03-03T09:58:24;9.16;75.97
68189;DHT22;66299;47.514;19.218;2023-03-03T10:01:01;9.52;73.73
68189;DHT22;66299;47.514;19.218;2023-03-03T10:04:03;9.51;73.29
68189;DHT22;66299;47.514;19.218;2023-03-03T10:06:38;9.84;73.30
68189;DHT22;66299;47.514;19.218;2023-03-03T10:12:19;9.79;73.65
68189;DHT22;66299;47.514;19.218;2023-03-03T10:15:12;9.57;73.76
68189;DHT22;66299;47.514;19.218;2023-03-03T10:17:47;9.89;72.40
68189;DHT22;66299;47.514;19.218;2023-03-03T10:20:43;9.91;72.44
68189;DHT22;66299;47.514;19.218;2023-03-03T10:23:20;10.23;71.78
68189;DHT22;66299;47.514;19.218;2023-03-03T10:26:04;10.32;70.72
68189;DHT22;66299;47.514;19.218;2023-03-03T10:28:57;10.32;70.47
68189;DHT22;66299;47.514;19.218;2023-03-03T10:31:44;10.50;70.72
68189;DHT22;66299;47.514;19.218;2023-03-03T10:34:43;10.71;70.22
68189;DHT22;66299;47.514;19.218;2023-03-03T10:37:19;11.01;70.70
68189;DHT22;66299;47.514;19.218;2023-03-03T10:40:02;10.73;69.94
68189;DHT22;66299;47.514;19.218;2023-03-03T10:42:52;10.75;68.90
68189;DHT22;66299;47.514;19.218;2023-03-03T10:45:44;9.86;71.09
68189;DHT22;66299;47.514;19.218;2023-03-03T10:48:35;10.88;69.54
68189;DHT22;66299;47.514;19.218;2023-03-03T10:51:17;11.18;68.35
68189;DHT22;66299;47.514;19.218;2023-03-03T10:53:58;11.59;68.41
68189;DHT22;66299;47.514;19.218;2023-03-03T10:56:37;11.76;66.67
68189;DHT22;66299;47.514;19.218;2023-03-03T10:59:33;11.39;67.58
68189;DHT22;66299;47.514;19.218;2023-03-03T11:02:12;11.30;68.75
68189;DHT22;66299;47.514;19.218;2023-03-03T11:05:01;11.81;66.54
68189;DHT22;66299;47.514;19.218;2023-03-03T11:07:41;11.86;65.91
68189;DHT22;66299;47.514;19.218;2023-03-03T11:10:19;11.87;66.50
68189;DHT22;66299;47.514;19.218;2023-03-03T11:12:54;11.60;66.26
68189;DHT22;66299;47.514;19.218;2023-03-03T11:15:39;11.12;68.02
68189;DHT22;66299;47.514;19.218;2023-03-03T11:18:17;12.36;65.70
68189;DHT22;66299;47.514;19.218;2023-03-03T11:20:56;12.17;66.03
68189;DHT22;66299;47.514;19.218;2023-03-03T11:23:56;12.20;65.14
68189;DHT22;66299;47.514;19.218;2023-03-03T11:26:34;11.62;66.02
68189;DHT22;66299;47.514;19.218;2023-03-03T11:29:38;12.31;66.00
68189;DHT22;66299;47.514;19.218;2023-03-03T11:32:20;12.31;65.05
68189;DHT22;66299;47.514;19.218;2023-03-03T11:34:57;12.57;64.36
68189;DHT22;66299;47.514;19.218;2023-03-03T11:37:34;12.90;63.63
68189;DHT22;66299;47.514;19.218;2023-03-03T11:40:11;12.50;63.73
68189;DHT22;66299;47.514;19.218;2023-03-03T11:42:51;12.28;64.52
68189;DHT22;66299;47.514;19.218;2023-03-03T11:45:27;12.57;64.05
68189;DHT22;66299;47.514;19.218;2023-03-03T11:48:05;12.14;65.70
68189;DHT22;66299;47.514;19.218;2023-03-03T11:50:38;12.87;63.94
68189;DHT22;66299;47.514;19.218;2023-03-03T11:53:25;12.93;63.66
68189;DHT22;66299;47.514;19.218;2023-03-03T11:55:58;12.82;63.79
68189;DHT22;66299;47.514;19.218;2023-03-03T11:58:33;12.83;63.18
68189;DHT22;66299;47.514;19.218;2023-03-03T12:01:15;12.41;63.88
68189;DHT22;66299;47.514;19.218;2023-03-03T12:03:52;11.62;65.10
68189;DHT22;66299;47.514;19.218;2023-03-03T12:06:40;11.97;65.38
68189;DHT22;66299;47.514;19.218;2023-03-03T12:09:26;13.00;63.89
68189;DHT22;66299;47.514;19.218;2023-03-03T12:12:05;12.83;62.84
68189;DHT22;66299;47.514;19.218;2023-03-03T12:14:52;12.93;63.34
68189;DHT22;66299;47.514;19.218;2023-03-03T12:17:40;12.67;63.18
68189;DHT22;66299;47.514;19.218;2023-03-03T12:20:17;12.28;63.99
68189;DHT22;66299;47.514;19.218;2023-03-03T12:22:59;13.20;62.53
68189;DHT22;66299;47.514;19.218;2023-03-03T12:25:39;12.99;63.11
68189;DHT22;66299;47.514;19.218;2023-03-03T12:28:10;13.30;62.40
68189;DHT22;66299;47.514;19.218;2023-03-03T12:30:43;13.45;61.32
68189;DHT22;66299;47.514;19.218;2023-03-03T12:33:22;13.24;61.28
68189;DHT22;66299;47.514;19.218;2023-03-03T12:36:05;12.56;63.76
68189;DHT22;66299;47.514;19.218;2023-03-03T12:38:42;12.97;62.93
68189;DHT22;66299;47.514;19.218;2023-03-03T12:41:18;13.06;62.00
68189;DHT22;66299;47.514;19.218;2023-03-03T12:43:55;13.44;60.93
68189;DHT22;66299;47.514;19.218;2023-03-03T12:46:34;13.72;60.18
68189;DHT22;66299;47.514;19.218;2023-03-03T12:49:07;12.10;64.23
68189;DHT22;66299;47.514;19.218;2023-03-03T12:51:47;12.38;64.38
68189;DHT22;66299;47.514;19.218;2023-03-03T12:54:32;13.48;61.63
68189;DHT22;66299;47.514;19.218;2023-03-03T12:57:10;14.10;60.91
68189;DHT22;66299;47.514;19.218;2023-03-03T12:59:54;14.14;59.91
68189;DHT22;66299;47.514;19.218;2023-03-03T13:02:43;14.42;59.91
68189;DHT22;66299;47.514;19.218;2023-03-03T13:05:26;14.31;58.61
68189;DHT22;66299;47.514;19.218;2023-03-03T13:08:17;14.16;59.63
68189;DHT22;66299;47.514;19.218;2023-03-03T13:10:51;14.67;58.97
68189;DHT22;66299;47.514;19.218;2023-03-03T13:13:26;14.12;60.42
68189;DHT22;66299;47.514;19.218;2023-03-03T13:16:11;13.92;61.01
68189;DHT22;66299;47.514;19.218;2023-03-03T13:18:51;13.54;61.98
68189;DHT22;66299;47.514;19.218;2023-03-03T13:21:26;13.51;61.14
68189;DHT22;66299;47.514;19.218;2023-03-03T13:24:05;13.48;62.16
68189;DHT22;66299;47.514;19.218;2023-03-03T13:26:36;13.72;62.47
68189;DHT22;66299;47.514;19.218;2023-03-03T13:29:13;13.52;62.30
68189;DHT22;66299;47.514;19.218;2023-03-03T13:31:47;13.41;62.89
68189;DHT22;66299;47.514;19.218;2023-03-03T13:34:24;13.80;63.01
68189;DHT22;66299;47.514;19.218;2023-03-03T13:36:58;12.96;63.10
68189;DHT22;66299;47.514;19.218;2023-03-03T13:39:33;12.69;63.31
68189;DHT22;66299;47.514;19.218;2023-03-03T13:42:14;12.87;62.03
68189;DHT22;66299;47.514;19.218;2023-03-03T13:44:45;12.75;62.24
68189;DHT22;66299;47.514;19.218;2023-03-03T13:47:21;12.90;61.48
68189;DHT22;66299;47.514;19.218;2023-03-03T13:49:59;12.69;62.84
68189;DHT22;66299;47.514;19.218;2023-03-03T13:52:32;12.53;62.00
68189;DHT22;66299;47.514;19.218;2023-03-03T13:55:21;12.24;63.39
68189;DHT22;66299;47.514;19.218;2023-03-03T13:57:58;12.60;63.08
68189;DHT22;66299;47.514;19.218;2023-03-03T14:00:36;12.65;61.41
68189;DHT22;66299;47.514;19.218;2023-03-03T14:03:20;12.72;61.12
68189;DHT22;66299;47.514;19.218;2023-03-03T14:05:56;12.56;61.58
68189;DHT22;66299;47.514;19.218;2023-03-03T14:08:55;12.53;61.68
68189;DHT22;66299;47.514;19.218;2023-03-03T14:11:29;12.50;61.67
68189;DHT22;66299;47.514;19.218;2023-03-03T14:14:07;12.53;61.51
68189;DHT22;66299;47.514;19.218;2023-03-03T14:16:49;12.44;62.64
68189;DHT22;66299;47.514;19.218;2023-03-03T14:19:23;12.17;63.50
68189;DHT22;66299;47.514;19.218;2023-03-03T14:22:03;12.26;63.84
68189;DHT22;66299;47.514;19.218;2023-03-03T14:24:55;12.22;63.05
68189;DHT22;66299;47.514;19.218;2023-03-03T14:27:38;12.13;63.68
68189;DHT22;66299;47.514;19.218;2023-03-03T14:30:28;12.28;63.53
68189;DHT22;66299;47.514;19.218;2023-03-03T14:33:00;12.25;63.18
68189;DHT22;66299;47.514;19.218;2023-03-03T14:35:32;12.20;64.11
68189;DHT22;66299;47.514;19.218;2023-03-03T14:38:08;12.21;64.88
68189;DHT22;66299;47.514;19.218;2023-03-03T14:40:42;11.98;65.37
68189;DHT22;66299;47.514;19.218;2023-03-03T14:43:25;12.07;65.83
68189;DHT22;66299;47.514;19.218;2023-03-03T14:45:55;12.28;64.72
68189;DHT22;66299;47.514;19.218;2023-03-03T14:48:27;12.22;63.54
68189;DHT22;66299;47.514;19.218;2023-03-03T14:50:59;11.98;63.19
68189;DHT22;66299;47.514;19.218;2023-03-03T14:53:44;11.87;62.35
68189;DHT22;66299;47.514;19.218;2023-03-03T14:56:21;11.83;60.54
68189;DHT22;66299;47.514;19.218;2023-03-03T14:59:15;12.07;59.06
68189;DHT22;66299;47.514;19.218;2023-03-03T15:01:46;11.97;59.33
68189;DHT22;66299;47.514;19.218;2023-03-03T15:04:25;11.71;58.64
68189;DHT22;66299;47.514;19.218;2023-03-03T15:06:55;11.66;58.46
68189;DHT22;66299;47.514;19.218;2023-03-03T15:09:36;11.53;58.70
68189;DHT22;66299;47.514;19.218;2023-03-03T15:12:20;11.36;59.29
68189;DHT22;66299;47.514;19.218;2023-03-03T15:15:03;11.16;59.06
68189;DHT22;66299;47.514;19.218;2023-03-03T15:17:38;11.02;59.64
68189;DHT22;66299;47.514;19.218;2023-03-03T15:20:12;10.88;59.62
68189;DHT22;66299;47.514;19.218;2023-03-03T15:22:49;10.80;60.13
68189;DHT22;66299;47.514;19.218;2023-03-03T15:25:25;10.68;59.81
68189;DHT22;66299;47.514;19.218;2023-03-03T15:28:32;10.67;59.55
68189;DHT22;66299;47.514;19.218;2023-03-03T15:31:08;10.59;59.35
68189;DHT22;66299;47.514;19.218;2023-03-03T15:33:46;10.57;59.59
68189;DHT22;66299;47.514;19.218;2023-03-03T15:36:27;10.54;59.97
68189;DHT22;66299;47.514;19.218;2023-03-03T15:39:02;10.44;60.76
68189;DHT22;66299;47.514;19.218;2023-03-03T15:41:41;10.47;60.55
68189;DHT22;66299;47.514;19.218;2023-03-03T15:44:18;10.39;61.08
68189;DHT22;66299;47.514;19.218;2023-03-03T15:47:01;10.43;61.03
68189;DHT22;66299;47.514;19.218;2023-03-03T15:49:49;10.43;60.87
68189;DHT22;66299;47.514;19.218;2023-03-03T15:52:34;10.33;61.29
68189;DHT22;66299;47.514;19.218;2023-03-03T15:55:12;10.22;61.54
68189;DHT22;66299;47.514;19.218;2023-03-03T15:57:54;10.22;61.74
68189;DHT22;66299;47.514;19.218;2023-03-03T16:00:35;10.10;62.13
68189;DHT22;66299;47.514;19.218;2023-03-03T16:03:13;10.05;62.10
68189;DHT22;66299;47.514;19.218;2023-03-03T16:05:51;10.03;61.59
68189;DHT22;66299;47.514;19.218;2023-03-03T16:08:23;9.98;61.24
68189;DHT22;66299;47.514;19.218;2023-03-03T16:11:01;10.06;61.09
68189;DHT22;66299;47.514;19.218;2023-03-03T16:13:54;9.84;61.92
68189;DHT22;66299;47.514;19.218;2023-03-03T16:16:43;9.75;61.69
68189;DHT22;66299;47.514;19.218;2023-03-03T16:19:25;9.70;61.57
68189;DHT22;66299;47.514;19.218;2023-03-03T16:22:18;9.58;62.09
68189;DHT22;66299;47.514;19.218;2023-03-03T16:25:00;9.54;62.28
68189;DHT22;66299;47.514;19.218;2023-03-03T16:27:35;9.51;62.19
68189;DHT22;66299;47.514;19.218;2023-03-03T16:30:24;9.43;62.57
68189;DHT22;66299;47.514;19.218;2023-03-03T16:33:05;9.30;62.91